Huachuca City, AZ (85616)

11:22 AM MST del 21 Ottobre 2014 (GMT -0700)
Lower Huachuca City | Change Station
CLOSE
Current Station
Stazione meteo personale
Location: Huachuca City, AZ
Altitudine: 4251 ft
Stazioni meteo nelle vicinanze

Alt. 4251 ft 31.64 °N, 110.34 °W | Updated 12 seconds ago

Sereno
Sereno
71.3 °F
Sembra 77 °F
N
3.4
Vento Variabile Vento da ENE
Gusts 7.2 mph

Oggi
Massima -- | Minima -- °F
--% Possibilità di precip.
Ieri
Massima -- | Minima -- °F
Precip. -- in
6:28 AM 5:42 PM
Luna calante, 5% visible
Pressione 29.94 in
Visibilità 10.0 miglia
Nuvole Alcuni 5000 ft
Alcuni 25000 ft
Indice di calore 77 °F
Punto di rugiada 48 °F
Umidità 43%
Piovosità 0.00 in
Spessore del manto nevoso Non disponibile.
Raggi UV 6 fuori da 12
Polline 5.50 fuori da 12
Qualità dell'aria Non disponibile.
Flu Activity No Activity
METAR KFHU 211755Z VRB03KT 10SM FEW050 FEW250 21/07 A3007 RMK SLP137 58003

More Conditions Fewer Conditions

Pressione 29.94 in
Visibilità 10.0 miglia
Nuvole Alcuni 5000 ft
Alcuni 25000 ft
Indice di calore 77 °F
Punto di rugiada 48 °F
Umidità 43%
Piovosità 0.00 in
Spessore del manto nevoso Non disponibile.
Raggi UV 6 fuori da 12
Polline 5.50 fuori da 12
Qualità dell'aria Non disponibile.
Flu Activity No Activity
METAR KFHU 211755Z VRB03KT 10SM FEW050 FEW250 21/07 A3007 RMK SLP137 58003

More Conditions Fewer Conditions

10-Day Weather Forecast

Almanac

Astronomia

Oct. 21, 2014 Alba Tramonto
Ora attuale 06:28 MST 17:42 MST
Crepuscolo civile 06:04 MST 18:07 MST
Crepuscolo nautico 05:35 MST 18:35 MST
Crepuscolo astronomico 05:07 MST 19:03 MST
Luna 04:24 MST 16:32 MST
Estensione della luce visibile 12h 02m
Lunghezza del giorno
11h 13m
Tomorrow will be 1m 48s shorter.
Luna calante, 5% of the Moon is Illuminated
Oggi
Luna calante
Ott 23
Nuovo
Ott 30
Primo quarto
Nov 6
Luna piena
Nov 14
Ultimo quarto

Gli estremi di oggi

State Highs State Lows

Community

WunderPhotos

Upload Photos

1,763,738 foto caricate!

Nearby

Profondità neve

Stazione Profondità Altitudine
Hannagan Meadows 1 in 9020 ft
Wildcat 0 in 7850 ft
Workman Creek 0 in 6900 ft
Beaver Head 0 in 7990 ft
Coronado Trail 1 in 8400 ft

Attività sismica

Città  Distanza Mag. Data & Ora
Non sono state riportate attività sismiche nelle vicinanze.
Minimo Magnitudo Mostrato è 2.5.

Temperature delle acque costiere

Località Temperatura
Nessun dato dalle stazioni

Stazioni meteo nelle vicinanze